createdAt,value
2022-07-31T03:00:48.240Z,7.38
2022-07-31T03:03:15.520Z,4.28
2022-07-31T03:05:42.745Z,4.10
2022-07-31T03:08:09.909Z,4.30
2022-07-31T03:10:37.134Z,4.05
2022-07-31T03:13:07.226Z,4.22
2022-07-31T03:15:36.314Z,4.32
2022-07-31T03:18:11.137Z,4.32
2022-07-31T03:20:40.125Z,4.63
2022-07-31T03:23:07.529Z,3.75
2022-07-31T03:25:35.043Z,3.60
2022-07-31T03:28:02.457Z,4.38
2022-07-31T03:30:29.636Z,4.30
2022-07-31T03:32:57.410Z,4.20
2022-07-31T03:35:25.398Z,4.00
2022-07-31T03:37:52.909Z,4.20
2022-07-31T03:40:20.364Z,4.10
2022-07-31T03:42:49.060Z,4.30
2022-07-31T03:45:16.879Z,4.10
2022-07-31T03:47:44.143Z,4.32
2022-07-31T03:50:11.649Z,4.05
2022-07-31T03:52:39.878Z,4.75
2022-07-31T03:55:08.844Z,4.70
2022-07-31T03:57:38.025Z,4.40
2022-07-31T04:00:07.944Z,4.93
2022-07-31T04:02:45.171Z,4.40
2022-07-31T04:05:12.478Z,4.60
2022-07-31T04:07:39.686Z,4.15
2022-07-31T04:10:07.504Z,4.65
2022-07-31T04:12:34.796Z,4.70
2022-07-31T04:15:01.995Z,4.30
2022-07-31T04:17:30.826Z,4.80
2022-07-31T04:20:01.005Z,4.47
2022-07-31T04:22:29.629Z,5.07
2022-07-31T04:24:58.170Z,4.85
2022-07-31T04:27:25.416Z,4.50
2022-07-31T04:29:53.657Z,4.47
2022-07-31T04:32:21.687Z,4.18
2022-07-31T04:34:48.846Z,4.60
2022-07-31T04:37:16.893Z,4.57
2022-07-31T04:39:44.470Z,4.60
2022-07-31T04:42:12.468Z,4.60
2022-07-31T04:44:39.922Z,4.65
2022-07-31T04:47:07.623Z,4.45
2022-07-31T04:49:34.899Z,4.78
2022-07-31T04:52:02.480Z,4.60
2022-07-31T04:54:29.890Z,4.68
2022-07-31T04:56:57.143Z,4.90
2022-07-31T04:59:24.432Z,4.65
2022-07-31T05:02:11.721Z,4.35
2022-07-31T05:04:39.603Z,4.63
2022-07-31T05:07:06.838Z,4.85
2022-07-31T05:09:36.522Z,4.20
2022-07-31T05:12:04.499Z,4.43
2022-07-31T05:14:32.019Z,4.50
2022-07-31T05:16:59.333Z,4.90
2022-07-31T05:19:30.375Z,4.50
2022-07-31T05:22:02.361Z,4.38
2022-07-31T05:24:33.490Z,4.03
2022-07-31T05:27:04.776Z,4.40
2022-07-31T05:29:33.324Z,4.57
2022-07-31T05:32:01.509Z,4.03
2022-07-31T05:34:30.057Z,4.05
2022-07-31T05:37:01.794Z,5.20
2022-07-31T05:39:30.237Z,5.65
2022-07-31T05:41:57.625Z,6.07
2022-07-31T05:44:25.140Z,4.88
2022-07-31T05:49:19.887Z,4.78
2022-07-31T05:51:47.441Z,4.80
2022-07-31T05:54:14.838Z,4.75
2022-07-31T05:56:42.096Z,4.28
2022-07-31T05:59:09.797Z,4.30
2022-07-31T06:01:37.750Z,4.20
2022-07-31T06:04:05.571Z,4.30
2022-07-31T06:06:32.936Z,4.28
2022-07-31T06:09:04.401Z,4.25
2022-07-31T06:11:32.446Z,4.22
2022-07-31T06:13:59.900Z,4.43
2022-07-31T06:16:27.099Z,4.30
2022-07-31T06:18:54.373Z,3.53
2022-07-31T06:23:47.664Z,4.30
2022-07-31T06:26:15.227Z,4.38
2022-07-31T06:28:48.782Z,4.20
2022-07-31T06:31:21.026Z,3.83
2022-07-31T06:33:49.596Z,4.07
2022-07-31T06:36:18.099Z,4.45
2022-07-31T06:38:46.020Z,4.28
2022-07-31T06:41:33.611Z,4.50
2022-07-31T06:44:00.822Z,3.97
2022-07-31T06:46:28.495Z,4.68
2022-07-31T06:48:55.831Z,4.50
2022-07-31T06:51:31.752Z,4.53
2022-07-31T06:54:01.094Z,4.97
2022-07-31T06:56:29.444Z,4.97
2022-07-31T06:58:56.906Z,5.82
2022-07-31T07:01:24.278Z,5.25
2022-07-31T07:03:51.598Z,5.60
2022-07-31T07:06:19.212Z,5.65
2022-07-31T07:08:46.429Z,4.88
2022-07-31T07:11:14.136Z,4.40
2022-07-31T07:13:45.040Z,4.10
2022-07-31T07:16:14.716Z,3.92
2022-07-31T07:18:43.187Z,3.90
2022-07-31T07:21:11.050Z,3.60
2022-07-31T07:23:38.585Z,3.25
2022-07-31T07:26:06.206Z,2.97
2022-07-31T07:28:34.021Z,2.53
2022-07-31T07:31:01.909Z,2.70
2022-07-31T07:33:40.752Z,2.83
2022-07-31T07:36:23.483Z,2.50
2022-07-31T07:38:56.023Z,2.10
2022-07-31T07:41:25.298Z,2.40
2022-07-31T07:43:53.384Z,2.17
2022-07-31T07:46:25.012Z,2.15
2022-07-31T07:48:52.711Z,2.10
2022-07-31T07:51:20.699Z,2.53
2022-07-31T07:53:48.307Z,2.15
2022-07-31T07:56:16.001Z,2.33
2022-07-31T07:58:43.162Z,2.10
2022-07-31T08:01:13.472Z,2.30
2022-07-31T08:03:48.578Z,2.63
2022-07-31T08:06:17.753Z,2.40
2022-07-31T08:08:44.946Z,2.30
2022-07-31T08:11:17.099Z,2.40
2022-07-31T08:13:50.256Z,2.45
2022-07-31T08:16:21.668Z,2.40
2022-07-31T08:18:49.899Z,2.30
2022-07-31T08:21:17.173Z,2.20
2022-07-31T08:23:44.500Z,2.00
2022-07-31T08:26:13.815Z,1.88
2022-07-31T08:28:41.811Z,1.70
2022-07-31T08:31:20.954Z,1.90
2022-07-31T08:33:48.188Z,1.90
2022-07-31T08:36:15.411Z,1.80
2022-07-31T08:38:42.632Z,1.50
2022-07-31T08:41:12.009Z,1.70
2022-07-31T08:43:59.963Z,1.95
2022-07-31T08:46:27.388Z,1.60
2022-07-31T08:48:57.438Z,1.55
2022-07-31T08:51:25.416Z,1.67
2022-07-31T08:53:53.400Z,1.73
2022-07-31T08:56:21.469Z,1.67
2022-07-31T08:58:48.678Z,1.52
2022-07-31T09:01:16.098Z,1.70
2022-07-31T09:03:43.990Z,1.48
2022-07-31T09:06:11.246Z,1.70
2022-07-31T09:08:38.496Z,1.70
2022-07-31T09:11:10.888Z,1.80
2022-07-31T09:13:38.471Z,2.00
2022-07-31T09:16:08.097Z,2.00
2022-07-31T09:18:35.291Z,1.80
2022-07-31T09:21:04.907Z,1.85
2022-07-31T09:23:32.449Z,1.70
2022-07-31T09:26:07.591Z,1.98
2022-07-31T09:28:43.136Z,2.20
2022-07-31T09:31:11.333Z,2.00
2022-07-31T09:33:45.210Z,2.00
2022-07-31T09:36:13.551Z,2.28
2022-07-31T09:38:43.509Z,2.00
2022-07-31T09:41:53.432Z,2.03
2022-07-31T09:44:10.614Z,2.10
2022-07-31T09:46:46.239Z,2.17
2022-07-31T09:49:14.123Z,2.40
2022-07-31T09:51:46.944Z,2.20
2022-07-31T09:54:26.960Z,2.22
2022-07-31T09:56:54.415Z,2.40
2022-07-31T09:59:21.700Z,2.20
2022-07-31T10:01:49.696Z,2.42
2022-07-31T10:04:18.817Z,2.13
2022-07-31T10:06:50.959Z,2.20
2022-07-31T10:09:20.622Z,2.30
2022-07-31T10:11:51.478Z,2.20
2022-07-31T10:14:41.147Z,2.10
2022-07-31T10:17:10.251Z,2.20
2022-07-31T10:19:41.281Z,2.20
2022-07-31T10:22:09.913Z,2.08
2022-07-31T10:24:47.711Z,2.20
2022-07-31T10:27:17.387Z,2.20
2022-07-31T10:29:45.477Z,2.20
2022-07-31T10:32:12.962Z,2.10
2022-07-31T10:34:41.399Z,2.13
2022-07-31T10:37:23.065Z,1.92
2022-07-31T10:39:59.656Z,2.30
2022-07-31T10:42:49.669Z,2.10
2022-07-31T10:45:17.749Z,2.13
2022-07-31T10:47:59.764Z,2.10
2022-07-31T10:50:30.319Z,2.15
2022-07-31T10:53:12.036Z,2.20
2022-07-31T10:55:39.579Z,2.40
2022-07-31T10:58:19.752Z,2.00
2022-07-31T11:00:47.041Z,2.30
2022-07-31T11:03:22.353Z,2.17
2022-07-31T11:06:02.022Z,2.10
2022-07-31T11:08:41.861Z,1.95
2022-07-31T11:11:09.701Z,2.10
2022-07-31T11:13:55.435Z,1.92
2022-07-31T11:16:22.965Z,2.15
2022-07-31T11:19:04.379Z,2.20
2022-07-31T11:21:39.039Z,2.15
2022-07-31T11:24:20.952Z,2.20
2022-07-31T11:26:57.443Z,2.50
2022-07-31T11:29:59.046Z,2.28
2022-07-31T11:32:25.730Z,2.38
2022-07-31T11:34:56.052Z,2.30
2022-07-31T11:37:26.091Z,2.63
2022-07-31T11:40:09.631Z,2.42
2022-07-31T11:42:43.747Z,2.65
2022-07-31T11:45:12.405Z,2.35
2022-07-31T11:48:12.564Z,2.50
2022-07-31T11:50:30.860Z,2.30
2022-07-31T11:53:06.856Z,2.70
2022-07-31T11:55:44.695Z,2.30
2022-07-31T11:58:12.172Z,2.30
2022-07-31T12:00:39.481Z,2.67
2022-07-31T12:03:09.123Z,2.35
2022-07-31T12:05:45.184Z,2.50
2022-07-31T12:08:13.453Z,2.40
2022-07-31T12:10:42.006Z,2.72
2022-07-31T12:13:18.175Z,2.70
2022-07-31T12:15:55.605Z,2.50
2022-07-31T12:18:23.459Z,2.13
2022-07-31T12:20:54.249Z,2.30
2022-07-31T12:23:40.217Z,2.42
2022-07-31T12:26:12.351Z,2.42
2022-07-31T12:28:40.343Z,2.70
2022-07-31T12:31:07.604Z,2.50
2022-07-31T12:33:42.726Z,2.38
2022-07-31T12:36:15.032Z,2.50
2022-07-31T12:38:47.809Z,2.47
2022-07-31T12:41:16.213Z,2.20
2022-07-31T12:43:51.682Z,2.20
2022-07-31T12:46:38.538Z,2.35
2022-07-31T12:49:06.593Z,2.35
2022-07-31T12:51:45.792Z,2.30
2022-07-31T12:54:17.781Z,2.35
2022-07-31T12:56:46.467Z,2.28
2022-07-31T12:59:14.252Z,2.50
2022-07-31T13:01:41.913Z,2.28
2022-07-31T13:04:18.365Z,2.28
2022-07-31T13:06:51.653Z,2.20
2022-07-31T13:09:20.031Z,2.08
2022-07-31T13:11:48.418Z,2.20
2022-07-31T13:14:21.328Z,2.10
2022-07-31T13:16:50.678Z,2.38
2022-07-31T13:19:18.256Z,2.00
2022-07-31T13:21:49.303Z,2.22
2022-07-31T13:24:20.886Z,2.00
2022-07-31T13:26:49.542Z,2.10
2022-07-31T13:29:17.425Z,1.80
2022-07-31T13:31:45.057Z,2.20
2022-07-31T13:34:12.378Z,2.25
2022-07-31T13:36:40.126Z,2.28
2022-07-31T13:39:10.862Z,2.50
2022-07-31T13:41:39.043Z,2.20
2022-07-31T13:44:07.164Z,1.95
2022-07-31T13:46:34.562Z,2.40
2022-07-31T13:49:02.937Z,2.50
2022-07-31T13:51:30.312Z,2.30
2022-07-31T13:53:57.538Z,2.40
2022-07-31T13:56:39.070Z,2.40
2022-07-31T13:59:13.697Z,2.35
2022-07-31T14:02:04.134Z,2.40
2022-07-31T14:04:32.733Z,2.17
2022-07-31T14:07:06.764Z,2.28
2022-07-31T14:09:34.880Z,2.20
2022-07-31T14:12:04.316Z,1.98
2022-07-31T14:14:32.483Z,2.03
2022-07-31T14:16:59.826Z,1.90
2022-07-31T14:19:27.079Z,2.17
2022-07-31T14:21:56.878Z,1.90
2022-07-31T14:24:40.265Z,2.03
2022-07-31T14:27:07.906Z,2.10
2022-07-31T14:29:35.923Z,2.30
2022-07-31T14:32:04.374Z,2.20
2022-07-31T14:34:35.563Z,2.10
2022-07-31T14:37:04.676Z,2.50
2022-07-31T14:39:32.201Z,2.28
2022-07-31T14:41:59.398Z,2.25
2022-07-31T14:44:29.004Z,2.30
2022-07-31T14:46:56.593Z,2.53
2022-07-31T14:49:23.911Z,2.60
2022-07-31T14:51:51.207Z,2.10
2022-07-31T14:54:18.414Z,2.45
2022-07-31T14:57:00.695Z,2.70
2022-07-31T14:59:30.077Z,2.58
2022-07-31T15:01:58.421Z,2.40
2022-07-31T15:04:25.879Z,2.30
2022-07-31T15:07:07.791Z,2.40
2022-07-31T15:09:40.440Z,2.50
2022-07-31T15:12:08.177Z,2.15
2022-07-31T15:14:35.538Z,2.50
2022-07-31T15:17:02.972Z,2.40
2022-07-31T15:19:30.487Z,2.50
2022-07-31T15:22:10.969Z,2.40
2022-07-31T15:24:48.250Z,2.08
2022-07-31T15:27:18.148Z,2.38
2022-07-31T15:30:06.140Z,2.30
2022-07-31T15:32:32.699Z,2.33
2022-07-31T15:34:59.964Z,2.40
2022-07-31T15:37:27.252Z,2.30
2022-07-31T15:40:03.367Z,2.10
2022-07-31T15:42:32.696Z,2.67
2022-07-31T15:45:00.006Z,2.25
2022-07-31T15:47:27.262Z,2.30
2022-07-31T15:49:54.558Z,2.40
2022-07-31T15:52:21.775Z,2.45
2022-07-31T15:54:51.973Z,2.00
2022-07-31T15:57:21.090Z,2.47
2022-07-31T15:59:49.275Z,2.60
2022-07-31T16:02:17.088Z,2.30
2022-07-31T16:04:52.352Z,2.00
2022-07-31T16:08:30.447Z,2.25
2022-07-31T16:10:16.761Z,2.13
2022-07-31T16:12:48.369Z,2.30
2022-07-31T16:15:18.366Z,2.40
2022-07-31T16:17:45.981Z,2.30
2022-07-31T16:20:20.815Z,2.25
2022-07-31T16:22:56.158Z,2.30
2022-07-31T16:25:24.418Z,2.60
2022-07-31T16:27:51.859Z,2.40
2022-07-31T16:30:19.134Z,2.50
2022-07-31T16:32:46.437Z,2.08
2022-07-31T16:35:13.802Z,2.42
2022-07-31T16:37:49.919Z,2.40
2022-07-31T16:40:28.751Z,2.35
2022-07-31T16:43:50.053Z,2.17
2022-07-31T16:45:54.309Z,2.40
2022-07-31T16:48:21.724Z,2.40
2022-07-31T16:50:53.216Z,2.75
2022-07-31T16:54:09.862Z,2.83
2022-07-31T16:56:15.021Z,2.63
2022-07-31T16:58:43.767Z,2.65
2022-07-31T17:01:53.941Z,2.70
2022-07-31T17:04:03.526Z,2.50
2022-07-31T17:06:37.254Z,2.60
2022-07-31T17:09:15.225Z,2.75
2022-07-31T17:11:47.164Z,2.42
2022-07-31T17:14:15.275Z,3.10
2022-07-31T17:16:47.120Z,2.70
2022-07-31T17:19:36.278Z,2.63
2022-07-31T17:22:07.436Z,2.50
2022-07-31T17:24:37.258Z,2.90
2022-07-31T17:27:08.574Z,2.78
2022-07-31T17:29:37.723Z,3.10
2022-07-31T17:32:05.369Z,2.70
2022-07-31T17:34:32.610Z,2.90
2022-07-31T17:36:59.811Z,2.92
2022-07-31T17:39:30.895Z,2.95
2022-07-31T17:41:59.323Z,2.92
2022-07-31T17:44:26.620Z,2.90
2022-07-31T17:46:54.752Z,3.20
2022-07-31T17:49:22.094Z,2.58
2022-07-31T17:51:58.935Z,2.50
2022-07-31T17:54:28.649Z,2.90
2022-07-31T17:56:56.103Z,3.00
2022-07-31T17:59:23.501Z,2.83
2022-07-31T18:01:53.141Z,3.20
2022-07-31T18:04:21.346Z,3.03
2022-07-31T18:06:54.444Z,3.03
2022-07-31T18:09:23.562Z,2.80
2022-07-31T18:11:52.379Z,3.10
2022-07-31T18:14:20.533Z,3.03
2022-07-31T18:16:51.712Z,3.20
2022-07-31T18:19:21.343Z,2.85
2022-07-31T18:21:49.201Z,3.00
2022-07-31T18:24:16.479Z,2.60
2022-07-31T18:26:43.713Z,2.92
2022-07-31T18:29:11.134Z,2.80
2022-07-31T18:31:38.663Z,3.05
2022-07-31T18:34:07.050Z,3.35
2022-07-31T18:36:34.898Z,3.20
2022-07-31T18:39:03.940Z,3.10
2022-07-31T18:41:33.978Z,2.97
2022-07-31T18:44:01.964Z,2.88
2022-07-31T18:46:29.273Z,3.20
2022-07-31T18:48:57.023Z,2.97
2022-07-31T18:51:25.176Z,3.10
2022-07-31T18:53:54.345Z,3.00
2022-07-31T18:56:23.680Z,2.95
2022-07-31T18:58:52.294Z,3.00
2022-07-31T19:01:20.869Z,2.92
2022-07-31T19:03:48.590Z,3.30
2022-07-31T19:06:16.164Z,2.97
2022-07-31T19:08:43.872Z,3.05
2022-07-31T19:11:12.202Z,3.25
2022-07-31T19:13:39.484Z,3.35
2022-07-31T19:16:06.895Z,3.30
2022-07-31T19:18:34.445Z,3.25
2022-07-31T19:21:22.618Z,3.30
2022-07-31T19:23:50.028Z,3.00
2022-07-31T19:26:17.689Z,3.17
2022-07-31T19:28:45.089Z,3.33
2022-07-31T19:31:13.278Z,3.00
2022-07-31T19:33:41.238Z,3.10
2022-07-31T19:36:10.751Z,2.78
2022-07-31T19:38:39.683Z,3.50
2022-07-31T19:41:07.010Z,3.75
2022-07-31T19:43:34.318Z,3.58
2022-07-31T19:46:11.346Z,3.70
2022-07-31T19:48:44.852Z,3.45
2022-07-31T19:51:13.742Z,3.45
2022-07-31T19:53:41.906Z,3.60
2022-07-31T19:56:10.978Z,3.75
2022-07-31T19:58:41.199Z,3.30
2022-07-31T20:01:09.437Z,3.25
2022-07-31T20:03:36.970Z,3.58
2022-07-31T20:06:04.728Z,3.60
2022-07-31T20:08:33.522Z,3.55
2022-07-31T20:11:03.900Z,4.05
2022-07-31T20:13:36.012Z,3.85
2022-07-31T20:16:03.640Z,4.22
2022-07-31T20:18:31.012Z,4.07
2022-07-31T20:21:09.855Z,3.60
2022-07-31T20:23:39.084Z,3.50
2022-07-31T20:26:10.127Z,3.30
2022-07-31T20:28:40.146Z,3.45
2022-07-31T20:31:15.739Z,3.28
2022-07-31T20:33:48.886Z,3.58
2022-07-31T20:36:27.026Z,3.70
2022-07-31T20:38:55.418Z,4.30
2022-07-31T20:41:22.646Z,4.65
2022-07-31T20:43:50.259Z,4.30
2022-07-31T20:46:18.200Z,4.07
2022-07-31T20:48:45.380Z,4.18
2022-07-31T20:51:20.169Z,4.35
2022-07-31T20:53:48.366Z,4.80
2022-07-31T20:56:16.240Z,3.92
2022-07-31T20:58:46.209Z,4.07
